sensor_id;sensor_type;location;lat;lon;timestamp;P1;durP1;ratioP1;P2;durP2;ratioP2
21254;SDS011;10785;50.674;17.954;2023-04-06T00:00:36;8.90;;;7.82;;
21254;SDS011;10785;50.674;17.954;2023-04-06T00:03:04;7.63;;;6.80;;
21254;SDS011;10785;50.674;17.954;2023-04-06T00:05:33;17.88;;;10.75;;
21254;SDS011;10785;50.674;17.954;2023-04-06T00:08:01;7.32;;;6.57;;
21254;SDS011;10785;50.674;17.954;2023-04-06T00:10:30;4.97;;;4.60;;
21254;SDS011;10785;50.674;17.954;2023-04-06T00:13:00;6.50;;;6.07;;
21254;SDS011;10785;50.674;17.954;2023-04-06T00:15:29;4.63;;;4.32;;
21254;SDS011;10785;50.674;17.954;2023-04-06T00:17:57;13.13;;;7.55;;
21254;SDS011;10785;50.674;17.954;2023-04-06T00:20:26;5.50;;;5.15;;
21254;SDS011;10785;50.674;17.954;2023-04-06T00:22:55;8.85;;;5.85;;
21254;SDS011;10785;50.674;17.954;2023-04-06T00:25:23;4.25;;;3.95;;
21254;SDS011;10785;50.674;17.954;2023-04-06T00:27:52;5.47;;;5.10;;
21254;SDS011;10785;50.674;17.954;2023-04-06T00:33:34;4.07;;;3.67;;
21254;SDS011;10785;50.674;17.954;2023-04-06T00:36:03;4.15;;;3.95;;
21254;SDS011;10785;50.674;17.954;2023-04-06T00:38:32;5.22;;;4.72;;
21254;SDS011;10785;50.674;17.954;2023-04-06T00:41:01;3.73;;;3.27;;
21254;SDS011;10785;50.674;17.954;2023-04-06T00:43:38;7.05;;;6.55;;
21254;SDS011;10785;50.674;17.954;2023-04-06T00:46:07;4.90;;;4.60;;
21254;SDS011;10785;50.674;17.954;2023-04-06T00:48:37;6.73;;;6.03;;
21254;SDS011;10785;50.674;17.954;2023-04-06T00:51:07;6.18;;;5.32;;
21254;SDS011;10785;50.674;17.954;2023-04-06T00:53:36;9.23;;;8.43;;
21254;SDS011;10785;50.674;17.954;2023-04-06T00:56:04;5.50;;;5.13;;
21254;SDS011;10785;50.674;17.954;2023-04-06T01:14:53;4.43;;;4.20;;
21254;SDS011;10785;50.674;17.954;2023-04-06T01:17:23;3.45;;;3.28;;
21254;SDS011;10785;50.674;17.954;2023-04-06T01:19:52;4.35;;;4.15;;
21254;SDS011;10785;50.674;17.954;2023-04-06T01:22:27;6.50;;;4.60;;
21254;SDS011;10785;50.674;17.954;2023-04-06T01:24:59;3.97;;;3.67;;
21254;SDS011;10785;50.674;17.954;2023-04-06T01:27:38;5.40;;;5.00;;
21254;SDS011;10785;50.674;17.954;2023-04-06T01:30:12;4.90;;;4.47;;
21254;SDS011;10785;50.674;17.954;2023-04-06T01:32:49;7.65;;;5.70;;
21254;SDS011;10785;50.674;17.954;2023-04-06T01:35:29;5.73;;;5.23;;
21254;SDS011;10785;50.674;17.954;2023-04-06T01:38:11;4.03;;;3.83;;
21254;SDS011;10785;50.674;17.954;2023-04-06T01:40:39;5.50;;;5.10;;
21254;SDS011;10785;50.674;17.954;2023-04-06T01:43:09;6.13;;;5.68;;
21254;SDS011;10785;50.674;17.954;2023-04-06T01:45:56;2.38;;;2.28;;
21254;SDS011;10785;50.674;17.954;2023-04-06T01:48:29;5.50;;;5.20;;
21254;SDS011;10785;50.674;17.954;2023-04-06T01:51:01;6.95;;;6.30;;
21254;SDS011;10785;50.674;17.954;2023-04-06T01:53:35;4.80;;;4.50;;
21254;SDS011;10785;50.674;17.954;2023-04-06T01:56:05;7.90;;;3.85;;
21254;SDS011;10785;50.674;17.954;2023-04-06T01:58:38;6.22;;;5.75;;
21254;SDS011;10785;50.674;17.954;2023-04-06T02:01:08;4.87;;;4.53;;
21254;SDS011;10785;50.674;17.954;2023-04-06T02:03:49;4.03;;;3.75;;
21254;SDS011;10785;50.674;17.954;2023-04-06T02:06:17;3.85;;;3.65;;
21254;SDS011;10785;50.674;17.954;2023-04-06T02:08:48;5.07;;;4.17;;
21254;SDS011;10785;50.674;17.954;2023-04-06T02:11:18;3.77;;;3.57;;
21254;SDS011;10785;50.674;17.954;2023-04-06T02:13:50;5.57;;;5.27;;
21254;SDS011;10785;50.674;17.954;2023-04-06T02:16:38;6.67;;;6.13;;
21254;SDS011;10785;50.674;17.954;2023-04-06T02:19:07;4.18;;;3.88;;
21254;SDS011;10785;50.674;17.954;2023-04-06T02:21:36;6.07;;;5.57;;
21254;SDS011;10785;50.674;17.954;2023-04-06T02:24:06;6.18;;;5.65;;
21254;SDS011;10785;50.674;17.954;2023-04-06T02:26:35;4.67;;;4.40;;
21254;SDS011;10785;50.674;17.954;2023-04-06T02:29:04;9.07;;;4.53;;
21254;SDS011;10785;50.674;17.954;2023-04-06T02:31:33;3.38;;;3.17;;
21254;SDS011;10785;50.674;17.954;2023-04-06T02:34:02;4.43;;;4.15;;
21254;SDS011;10785;50.674;17.954;2023-04-06T02:36:32;3.73;;;3.43;;
21254;SDS011;10785;50.674;17.954;2023-04-06T02:39:01;5.50;;;5.07;;
21254;SDS011;10785;50.674;17.954;2023-04-06T02:41:32;4.03;;;3.72;;
21254;SDS011;10785;50.674;17.954;2023-04-06T02:44:02;5.07;;;4.78;;
21254;SDS011;10785;50.674;17.954;2023-04-06T02:46:37;4.82;;;4.60;;
21254;SDS011;10785;50.674;17.954;2023-04-06T02:49:06;4.40;;;4.20;;
21254;SDS011;10785;50.674;17.954;2023-04-06T02:51:35;5.90;;;5.32;;
21254;SDS011;10785;50.674;17.954;2023-04-06T02:54:14;4.63;;;3.83;;
21254;SDS011;10785;50.674;17.954;2023-04-06T02:56:44;3.33;;;3.13;;
21254;SDS011;10785;50.674;17.954;2023-04-06T02:59:13;4.95;;;4.65;;
21254;SDS011;10785;50.674;17.954;2023-04-06T03:01:49;4.10;;;3.90;;
21254;SDS011;10785;50.674;17.954;2023-04-06T03:04:18;4.97;;;4.10;;
21254;SDS011;10785;50.674;17.954;2023-04-06T03:06:49;2.78;;;2.67;;
21254;SDS011;10785;50.674;17.954;2023-04-06T03:09:30;5.90;;;5.53;;
21254;SDS011;10785;50.674;17.954;2023-04-06T03:12:02;3.50;;;3.38;;
21254;SDS011;10785;50.674;17.954;2023-04-06T03:14:43;3.80;;;3.50;;
21254;SDS011;10785;50.674;17.954;2023-04-06T03:17:12;4.82;;;4.53;;
21254;SDS011;10785;50.674;17.954;2023-04-06T03:19:41;5.53;;;5.13;;
21254;SDS011;10785;50.674;17.954;2023-04-06T03:22:11;4.65;;;4.45;;
21254;SDS011;10785;50.674;17.954;2023-04-06T03:24:40;2.88;;;2.78;;
21254;SDS011;10785;50.674;17.954;2023-04-06T03:27:10;4.57;;;4.28;;
21254;SDS011;10785;50.674;17.954;2023-04-06T03:29:40;4.57;;;4.13;;
21254;SDS011;10785;50.674;17.954;2023-04-06T03:32:12;6.82;;;5.25;;
21254;SDS011;10785;50.674;17.954;2023-04-06T03:34:41;6.73;;;4.40;;
21254;SDS011;10785;50.674;17.954;2023-04-06T03:37:09;2.87;;;2.77;;
21254;SDS011;10785;50.674;17.954;2023-04-06T03:39:45;3.90;;;3.70;;
21254;SDS011;10785;50.674;17.954;2023-04-06T03:42:21;3.67;;;3.45;;
21254;SDS011;10785;50.674;17.954;2023-04-06T03:44:54;5.07;;;4.78;;
21254;SDS011;10785;50.674;17.954;2023-04-06T03:47:23;3.07;;;2.97;;
21254;SDS011;10785;50.674;17.954;2023-04-06T03:49:56;3.20;;;3.10;;
21254;SDS011;10785;50.674;17.954;2023-04-06T03:52:25;4.90;;;4.60;;
21254;SDS011;10785;50.674;17.954;2023-04-06T03:54:53;3.58;;;3.30;;
21254;SDS011;10785;50.674;17.954;2023-04-06T03:57:23;5.80;;;5.38;;
21254;SDS011;10785;50.674;17.954;2023-04-06T03:59:52;4.93;;;4.03;;
21254;SDS011;10785;50.674;17.954;2023-04-06T04:02:21;5.18;;;4.78;;
21254;SDS011;10785;50.674;17.954;2023-04-06T04:04:49;3.22;;;3.13;;
21254;SDS011;10785;50.674;17.954;2023-04-06T04:07:18;3.88;;;3.67;;
21254;SDS011;10785;50.674;17.954;2023-04-06T04:09:47;4.90;;;4.60;;
21254;SDS011;10785;50.674;17.954;2023-04-06T04:12:15;5.90;;;4.80;;
21254;SDS011;10785;50.674;17.954;2023-04-06T04:14:45;2.72;;;2.63;;
21254;SDS011;10785;50.674;17.954;2023-04-06T04:17:14;3.50;;;3.35;;
21254;SDS011;10785;50.674;17.954;2023-04-06T04:19:42;3.55;;;3.35;;
21254;SDS011;10785;50.674;17.954;2023-04-06T04:22:13;2.83;;;2.72;;
21254;SDS011;10785;50.674;17.954;2023-04-06T04:24:43;6.13;;;5.65;;
21254;SDS011;10785;50.674;17.954;2023-04-06T04:27:12;7.53;;;5.20;;
21254;SDS011;10785;50.674;17.954;2023-04-06T04:29:41;3.83;;;3.63;;
21254;SDS011;10785;50.674;17.954;2023-04-06T04:32:13;7.77;;;6.93;;
21254;SDS011;10785;50.674;17.954;2023-04-06T04:34:43;9.45;;;4.00;;
21254;SDS011;10785;50.674;17.954;2023-04-06T04:37:24;6.97;;;6.30;;
21254;SDS011;10785;50.674;17.954;2023-04-06T04:39:55;4.60;;;4.35;;
21254;SDS011;10785;50.674;17.954;2023-04-06T04:42:24;4.70;;;4.30;;
21254;SDS011;10785;50.674;17.954;2023-04-06T04:44:56;5.07;;;4.68;;
21254;SDS011;10785;50.674;17.954;2023-04-06T04:47:36;3.78;;;3.58;;
21254;SDS011;10785;50.674;17.954;2023-04-06T04:50:07;3.20;;;3.00;;
21254;SDS011;10785;50.674;17.954;2023-04-06T04:52:40;5.15;;;4.85;;
21254;SDS011;10785;50.674;17.954;2023-04-06T04:55:27;5.53;;;3.80;;
21254;SDS011;10785;50.674;17.954;2023-04-06T04:57:58;5.18;;;4.88;;
21254;SDS011;10785;50.674;17.954;2023-04-06T05:00:46;4.67;;;4.00;;
21254;SDS011;10785;50.674;17.954;2023-04-06T05:03:18;4.38;;;4.18;;
21254;SDS011;10785;50.674;17.954;2023-04-06T05:05:59;4.43;;;4.23;;
21254;SDS011;10785;50.674;17.954;2023-04-06T05:08:31;3.97;;;3.67;;
21254;SDS011;10785;50.674;17.954;2023-04-06T05:11:01;3.33;;;3.10;;
21254;SDS011;10785;50.674;17.954;2023-04-06T05:13:35;3.97;;;3.63;;
21254;SDS011;10785;50.674;17.954;2023-04-06T05:16:15;4.72;;;4.40;;
21254;SDS011;10785;50.674;17.954;2023-04-06T05:18:46;4.78;;;4.38;;
21254;SDS011;10785;50.674;17.954;2023-04-06T05:21:15;5.57;;;4.78;;
21254;SDS011;10785;50.674;17.954;2023-04-06T05:24:04;2.78;;;2.67;;
21254;SDS011;10785;50.674;17.954;2023-04-06T05:26:33;5.05;;;4.75;;
21254;SDS011;10785;50.674;17.954;2023-04-06T05:29:08;5.25;;;4.20;;
21254;SDS011;10785;50.674;17.954;2023-04-06T05:31:38;5.50;;;4.88;;
21254;SDS011;10785;50.674;17.954;2023-04-06T05:34:09;4.45;;;2.78;;
21254;SDS011;10785;50.674;17.954;2023-04-06T05:36:39;3.85;;;3.55;;
21254;SDS011;10785;50.674;17.954;2023-04-06T05:39:16;6.03;;;5.43;;
21254;SDS011;10785;50.674;17.954;2023-04-06T05:41:49;14.50;;;4.22;;
21254;SDS011;10785;50.674;17.954;2023-04-06T05:44:29;3.70;;;3.40;;
21254;SDS011;10785;50.674;17.954;2023-04-06T05:47:05;12.02;;;7.93;;
21254;SDS011;10785;50.674;17.954;2023-04-06T05:49:37;25.02;;;4.10;;
21254;SDS011;10785;50.674;17.954;2023-04-06T05:52:11;7.32;;;5.43;;
21254;SDS011;10785;50.674;17.954;2023-04-06T05:54:43;22.00;;;7.60;;
21254;SDS011;10785;50.674;17.954;2023-04-06T05:57:12;7.90;;;6.95;;
21254;SDS011;10785;50.674;17.954;2023-04-06T05:59:41;6.65;;;6.05;;
21254;SDS011;10785;50.674;17.954;2023-04-06T06:02:12;5.80;;;3.53;;
21254;SDS011;10785;50.674;17.954;2023-04-06T06:04:46;9.60;;;4.45;;
21254;SDS011;10785;50.674;17.954;2023-04-06T06:07:16;9.85;;;5.72;;
21254;SDS011;10785;50.674;17.954;2023-04-06T06:09:52;10.45;;;6.00;;
21254;SDS011;10785;50.674;17.954;2023-04-06T06:12:29;9.60;;;7.20;;
21254;SDS011;10785;50.674;17.954;2023-04-06T06:14:59;9.95;;;6.13;;
21254;SDS011;10785;50.674;17.954;2023-04-06T06:17:31;6.32;;;4.68;;
21254;SDS011;10785;50.674;17.954;2023-04-06T06:20:04;15.00;;;5.97;;
21254;SDS011;10785;50.674;17.954;2023-04-06T06:22:34;9.43;;;3.90;;
21254;SDS011;10785;50.674;17.954;2023-04-06T06:25:03;6.25;;;4.50;;
21254;SDS011;10785;50.674;17.954;2023-04-06T06:27:32;5.13;;;4.55;;
21254;SDS011;10785;50.674;17.954;2023-04-06T06:30:02;3.47;;;3.20;;
21254;SDS011;10785;50.674;17.954;2023-04-06T06:32:32;4.65;;;4.22;;
21254;SDS011;10785;50.674;17.954;2023-04-06T06:35:01;6.15;;;4.40;;
21254;SDS011;10785;50.674;17.954;2023-04-06T06:37:31;4.45;;;3.42;;
21254;SDS011;10785;50.674;17.954;2023-04-06T06:40:01;5.13;;;4.57;;
21254;SDS011;10785;50.674;17.954;2023-04-06T06:42:31;8.93;;;5.13;;
21254;SDS011;10785;50.674;17.954;2023-04-06T06:45:20;8.85;;;4.88;;
21254;SDS011;10785;50.674;17.954;2023-04-06T06:47:48;6.25;;;4.57;;
21254;SDS011;10785;50.674;17.954;2023-04-06T06:50:20;5.45;;;4.95;;
21254;SDS011;10785;50.674;17.954;2023-04-06T06:52:50;5.80;;;5.03;;
21254;SDS011;10785;50.674;17.954;2023-04-06T06:55:19;15.32;;;5.05;;
21254;SDS011;10785;50.674;17.954;2023-04-06T06:57:49;13.80;;;6.80;;
21254;SDS011;10785;50.674;17.954;2023-04-06T07:00:17;6.75;;;5.70;;
21254;SDS011;10785;50.674;17.954;2023-04-06T07:02:48;4.60;;;4.20;;
21254;SDS011;10785;50.674;17.954;2023-04-06T07:05:17;15.32;;;5.55;;
21254;SDS011;10785;50.674;17.954;2023-04-06T07:07:57;8.18;;;5.38;;
21254;SDS011;10785;50.674;17.954;2023-04-06T07:10:26;5.20;;;3.72;;
21254;SDS011;10785;50.674;17.954;2023-04-06T07:12:54;7.68;;;5.53;;
21254;SDS011;10785;50.674;17.954;2023-04-06T07:15:23;6.93;;;6.20;;
21254;SDS011;10785;50.674;17.954;2023-04-06T07:17:52;10.32;;;5.28;;
21254;SDS011;10785;50.674;17.954;2023-04-06T07:20:23;7.68;;;4.32;;
21254;SDS011;10785;50.674;17.954;2023-04-06T07:22:52;8.93;;;4.18;;
21254;SDS011;10785;50.674;17.954;2023-04-06T07:25:22;6.38;;;4.53;;
21254;SDS011;10785;50.674;17.954;2023-04-06T07:27:51;3.83;;;3.35;;
21254;SDS011;10785;50.674;17.954;2023-04-06T07:30:20;3.78;;;3.58;;
21254;SDS011;10785;50.674;17.954;2023-04-06T07:32:55;6.07;;;4.93;;
21254;SDS011;10785;50.674;17.954;2023-04-06T07:35:25;5.68;;;4.40;;
21254;SDS011;10785;50.674;17.954;2023-04-06T07:37:54;2.65;;;2.50;;
21254;SDS011;10785;50.674;17.954;2023-04-06T07:40:25;5.85;;;3.67;;
21254;SDS011;10785;50.674;17.954;2023-04-06T07:42:55;8.18;;;2.17;;
21254;SDS011;10785;50.674;17.954;2023-04-06T07:45:24;4.63;;;4.28;;
21254;SDS011;10785;50.674;17.954;2023-04-06T07:47:53;3.40;;;3.20;;
21254;SDS011;10785;50.674;17.954;2023-04-06T07:50:24;5.30;;;3.05;;
21254;SDS011;10785;50.674;17.954;2023-04-06T07:52:54;6.50;;;3.20;;
21254;SDS011;10785;50.674;17.954;2023-04-06T07:55:22;3.65;;;3.40;;
21254;SDS011;10785;50.674;17.954;2023-04-06T07:57:52;3.38;;;3.08;;
21254;SDS011;10785;50.674;17.954;2023-04-06T08:00:21;32.20;;;3.70;;
21254;SDS011;10785;50.674;17.954;2023-04-06T08:02:50;3.45;;;3.25;;
21254;SDS011;10785;50.674;17.954;2023-04-06T08:05:18;2.55;;;2.42;;
21254;SDS011;10785;50.674;17.954;2023-04-06T08:07:47;3.03;;;2.80;;
21254;SDS011;10785;50.674;17.954;2023-04-06T08:10:16;3.70;;;2.70;;
21254;SDS011;10785;50.674;17.954;2023-04-06T08:12:46;1.85;;;1.75;;
21254;SDS011;10785;50.674;17.954;2023-04-06T08:15:14;2.10;;;2.00;;
21254;SDS011;10785;50.674;17.954;2023-04-06T08:17:44;2.28;;;2.17;;
21254;SDS011;10785;50.674;17.954;2023-04-06T08:20:13;2.45;;;2.35;;
21254;SDS011;10785;50.674;17.954;2023-04-06T08:22:42;4.90;;;3.08;;
21254;SDS011;10785;50.674;17.954;2023-04-06T08:25:10;4.65;;;4.38;;
21254;SDS011;10785;50.674;17.954;2023-04-06T08:27:39;3.50;;;3.00;;
21254;SDS011;10785;50.674;17.954;2023-04-06T08:30:09;1.95;;;1.75;;
21254;SDS011;10785;50.674;17.954;2023-04-06T08:32:38;7.03;;;2.25;;
21254;SDS011;10785;50.674;17.954;2023-04-06T08:35:08;3.70;;;3.30;;
21254;SDS011;10785;50.674;17.954;2023-04-06T08:37:36;6.88;;;2.25;;
21254;SDS011;10785;50.674;17.954;2023-04-06T08:40:05;2.95;;;2.17;;
21254;SDS011;10785;50.674;17.954;2023-04-06T08:42:39;6.38;;;2.20;;
21254;SDS011;10785;50.674;17.954;2023-04-06T08:45:10;3.28;;;3.08;;
21254;SDS011;10785;50.674;17.954;2023-04-06T08:47:39;2.47;;;2.28;;
21254;SDS011;10785;50.674;17.954;2023-04-06T08:50:08;3.20;;;3.00;;
21254;SDS011;10785;50.674;17.954;2023-04-06T08:52:38;1.75;;;1.70;;
21254;SDS011;10785;50.674;17.954;2023-04-06T08:55:08;2.10;;;2.00;;
21254;SDS011;10785;50.674;17.954;2023-04-06T08:57:37;2.95;;;2.75;;
21254;SDS011;10785;50.674;17.954;2023-04-06T09:00:06;2.33;;;2.20;;
21254;SDS011;10785;50.674;17.954;2023-04-06T09:02:39;1.58;;;1.52;;
21254;SDS011;10785;50.674;17.954;2023-04-06T09:05:10;2.00;;;1.90;;
21254;SDS011;10785;50.674;17.954;2023-04-06T09:07:39;2.78;;;2.67;;
21254;SDS011;10785;50.674;17.954;2023-04-06T09:10:08;2.30;;;2.03;;
21254;SDS011;10785;50.674;17.954;2023-04-06T09:12:37;2.67;;;2.33;;
21254;SDS011;10785;50.674;17.954;2023-04-06T09:15:06;2.10;;;2.00;;
21254;SDS011;10785;50.674;17.954;2023-04-06T09:17:50;3.22;;;2.97;;
21254;SDS011;10785;50.674;17.954;2023-04-06T09:20:22;1.70;;;1.60;;
21254;SDS011;10785;50.674;17.954;2023-04-06T09:22:53;6.65;;;2.85;;
21254;SDS011;10785;50.674;17.954;2023-04-06T09:25:22;2.05;;;1.95;;
21254;SDS011;10785;50.674;17.954;2023-04-06T09:27:59;3.17;;;2.78;;
21254;SDS011;10785;50.674;17.954;2023-04-06T09:30:30;2.38;;;2.28;;
21254;SDS011;10785;50.674;17.954;2023-04-06T09:32:58;2.35;;;2.15;;
21254;SDS011;10785;50.674;17.954;2023-04-06T09:35:27;3.08;;;2.88;;
21254;SDS011;10785;50.674;17.954;2023-04-06T09:37:58;2.80;;;2.60;;
21254;SDS011;10785;50.674;17.954;2023-04-06T09:40:26;2.33;;;2.22;;
21254;SDS011;10785;50.674;17.954;2023-04-06T09:42:56;1.30;;;1.30;;
21254;SDS011;10785;50.674;17.954;2023-04-06T09:45:26;2.00;;;1.90;;
21254;SDS011;10785;50.674;17.954;2023-04-06T10:17:35;2.40;;;2.20;;
21254;SDS011;10785;50.674;17.954;2023-04-06T10:20:04;2.03;;;1.88;;
21254;SDS011;10785;50.674;17.954;2023-04-06T10:22:36;6.43;;;2.97;;
21254;SDS011;10785;50.674;17.954;2023-04-06T10:25:10;2.95;;;2.45;;
21254;SDS011;10785;50.674;17.954;2023-04-06T10:27:38;1.40;;;1.40;;
21254;SDS011;10785;50.674;17.954;2023-04-06T10:30:07;4.28;;;1.92;;
21254;SDS011;10785;50.674;17.954;2023-04-06T10:32:37;1.92;;;1.83;;
21254;SDS011;10785;50.674;17.954;2023-04-06T10:35:07;2.80;;;2.63;;
21254;SDS011;10785;50.674;17.954;2023-04-06T10:37:46;4.50;;;3.85;;
21254;SDS011;10785;50.674;17.954;2023-04-06T10:40:19;16.05;;;2.75;;
21254;SDS011;10785;50.674;17.954;2023-04-06T10:42:52;2.58;;;2.47;;
21254;SDS011;10785;50.674;17.954;2023-04-06T10:45:22;2.83;;;2.55;;
21254;SDS011;10785;50.674;17.954;2023-04-06T10:47:53;1.95;;;1.85;;
21254;SDS011;10785;50.674;17.954;2023-04-06T10:50:22;3.97;;;2.80;;
21254;SDS011;10785;50.674;17.954;2023-04-06T10:53:01;2.83;;;2.63;;
21254;SDS011;10785;50.674;17.954;2023-04-06T10:55:30;3.97;;;3.40;;
21254;SDS011;10785;50.674;17.954;2023-04-06T10:57:59;2.75;;;2.55;;
21254;SDS011;10785;50.674;17.954;2023-04-06T11:00:27;4.40;;;3.47;;
21254;SDS011;10785;50.674;17.954;2023-04-06T11:03:14;2.63;;;2.42;;
21254;SDS011;10785;50.674;17.954;2023-04-06T11:05:43;3.35;;;3.05;;
21254;SDS011;10785;50.674;17.954;2023-04-06T11:08:24;2.25;;;2.15;;
21254;SDS011;10785;50.674;17.954;2023-04-06T11:11:03;2.15;;;2.05;;
21254;SDS011;10785;50.674;17.954;2023-04-06T11:13:37;1.80;;;1.70;;
21254;SDS011;10785;50.674;17.954;2023-04-06T11:16:06;1.65;;;1.55;;
21254;SDS011;10785;50.674;17.954;2023-04-06T11:18:48;3.75;;;3.53;;
21254;SDS011;10785;50.674;17.954;2023-04-06T11:21:31;2.15;;;2.05;;
21254;SDS011;10785;50.674;17.954;2023-04-06T11:24:05;1.85;;;1.80;;
21254;SDS011;10785;50.674;17.954;2023-04-06T11:26:38;1.70;;;1.60;;
21254;SDS011;10785;50.674;17.954;2023-04-06T11:29:07;2.28;;;2.17;;
21254;SDS011;10785;50.674;17.954;2023-04-06T11:31:40;1.85;;;1.75;;
21254;SDS011;10785;50.674;17.954;2023-04-06T11:34:11;3.72;;;3.42;;
21254;SDS011;10785;50.674;17.954;2023-04-06T11:36:41;2.35;;;2.15;;
21254;SDS011;10785;50.674;17.954;2023-04-06T11:39:10;1.40;;;1.40;;
21254;SDS011;10785;50.674;17.954;2023-04-06T11:41:40;2.30;;;2.20;;
21254;SDS011;10785;50.674;17.954;2023-04-06T11:44:08;2.33;;;2.13;;
21254;SDS011;10785;50.674;17.954;2023-04-06T11:46:37;1.45;;;1.45;;
21254;SDS011;10785;50.674;17.954;2023-04-06T11:49:06;1.98;;;1.88;;
21254;SDS011;10785;50.674;17.954;2023-04-06T11:51:36;1.60;;;1.50;;
21254;SDS011;10785;50.674;17.954;2023-04-06T11:54:05;3.97;;;3.65;;
21254;SDS011;10785;50.674;17.954;2023-04-06T11:56:33;1.40;;;1.40;;
21254;SDS011;10785;50.674;17.954;2023-04-06T11:59:02;2.40;;;2.28;;
21254;SDS011;10785;50.674;17.954;2023-04-06T12:01:31;2.30;;;2.20;;
21254;SDS011;10785;50.674;17.954;2023-04-06T12:04:04;3.13;;;2.88;;
21254;SDS011;10785;50.674;17.954;2023-04-06T12:06:33;3.67;;;1.88;;
21254;SDS011;10785;50.674;17.954;2023-04-06T12:09:03;2.20;;;2.00;;
21254;SDS011;10785;50.674;17.954;2023-04-06T12:11:31;1.77;;;1.67;;
21254;SDS011;10785;50.674;17.954;2023-04-06T12:14:00;2.03;;;1.88;;
21254;SDS011;10785;50.674;17.954;2023-04-06T12:16:31;1.75;;;1.65;;
21254;SDS011;10785;50.674;17.954;2023-04-06T12:19:01;2.17;;;1.98;;
21254;SDS011;10785;50.674;17.954;2023-04-06T12:21:30;1.40;;;1.40;;
21254;SDS011;10785;50.674;17.954;2023-04-06T12:23:59;1.20;;;1.20;;
21254;SDS011;10785;50.674;17.954;2023-04-06T12:26:30;1.95;;;1.85;;
21254;SDS011;10785;50.674;17.954;2023-04-06T12:28:59;2.17;;;2.05;;
21254;SDS011;10785;50.674;17.954;2023-04-06T12:31:34;3.08;;;2.78;;
21254;SDS011;10785;50.674;17.954;2023-04-06T12:34:05;1.70;;;1.60;;
21254;SDS011;10785;50.674;17.954;2023-04-06T12:36:34;1.63;;;1.52;;
21254;SDS011;10785;50.674;17.954;2023-04-06T12:39:04;2.38;;;2.17;;
21254;SDS011;10785;50.674;17.954;2023-04-06T12:41:34;3.38;;;3.15;;
21254;SDS011;10785;50.674;17.954;2023-04-06T12:44:03;2.05;;;1.52;;
21254;SDS011;10785;50.674;17.954;2023-04-06T12:46:31;2.25;;;2.13;;
21254;SDS011;10785;50.674;17.954;2023-04-06T12:49:00;3.20;;;1.95;;
21254;SDS011;10785;50.674;17.954;2023-04-06T12:51:30;1.20;;;1.20;;
21254;SDS011;10785;50.674;17.954;2023-04-06T12:53:58;2.47;;;2.00;;
21254;SDS011;10785;50.674;17.954;2023-04-06T12:56:27;3.72;;;3.42;;
21254;SDS011;10785;50.674;17.954;2023-04-06T13:02:04;2.63;;;1.58;;
21254;SDS011;10785;50.674;17.954;2023-04-06T13:04:33;1.75;;;1.65;;
21254;SDS011;10785;50.674;17.954;2023-04-06T13:07:01;2.20;;;2.10;;
21254;SDS011;10785;50.674;17.954;2023-04-06T13:09:30;3.15;;;1.83;;
21254;SDS011;10785;50.674;17.954;2023-04-06T13:11:59;2.70;;;2.13;;
21254;SDS011;10785;50.674;17.954;2023-04-06T13:14:27;1.70;;;1.60;;
21254;SDS011;10785;50.674;17.954;2023-04-06T13:16:56;1.98;;;1.85;;
21254;SDS011;10785;50.674;17.954;2023-04-06T13:19:26;1.30;;;1.30;;
21254;SDS011;10785;50.674;17.954;2023-04-06T13:21:55;2.03;;;1.92;;
21254;SDS011;10785;50.674;17.954;2023-04-06T13:24:23;2.13;;;2.03;;
21254;SDS011;10785;50.674;17.954;2023-04-06T13:26:52;4.72;;;2.45;;
21254;SDS011;10785;50.674;17.954;2023-04-06T13:29:20;1.63;;;1.52;;
21254;SDS011;10785;50.674;17.954;2023-04-06T13:31:49;2.92;;;2.72;;
21254;SDS011;10785;50.674;17.954;2023-04-06T13:34:18;1.95;;;1.85;;
21254;SDS011;10785;50.674;17.954;2023-04-06T13:36:48;1.88;;;1.80;;
21254;SDS011;10785;50.674;17.954;2023-04-06T13:39:16;2.08;;;1.98;;
21254;SDS011;10785;50.674;17.954;2023-04-06T13:41:45;2.63;;;2.47;;
21254;SDS011;10785;50.674;17.954;2023-04-06T13:44:13;1.55;;;1.45;;
21254;SDS011;10785;50.674;17.954;2023-04-06T13:46:42;1.65;;;1.55;;
21254;SDS011;10785;50.674;17.954;2023-04-06T13:49:11;2.50;;;2.35;;
21254;SDS011;10785;50.674;17.954;2023-04-06T13:51:39;3.00;;;2.80;;
21254;SDS011;10785;50.674;17.954;2023-04-06T13:54:10;1.58;;;1.48;;
21254;SDS011;10785;50.674;17.954;2023-04-06T13:56:38;1.50;;;1.40;;
21254;SDS011;10785;50.674;17.954;2023-04-06T13:59:07;2.30;;;2.03;;
21254;SDS011;10785;50.674;17.954;2023-04-06T14:01:36;1.58;;;1.48;;
21254;SDS011;10785;50.674;17.954;2023-04-06T14:04:05;2.85;;;2.03;;
21254;SDS011;10785;50.674;17.954;2023-04-06T14:06:34;2.05;;;1.92;;
21254;SDS011;10785;50.674;17.954;2023-04-06T14:09:02;1.08;;;1.08;;
21254;SDS011;10785;50.674;17.954;2023-04-06T14:11:32;6.80;;;3.00;;
21254;SDS011;10785;50.674;17.954;2023-04-06T14:14:02;1.88;;;1.55;;
21254;SDS011;10785;50.674;17.954;2023-04-06T14:16:30;1.60;;;1.55;;
21254;SDS011;10785;50.674;17.954;2023-04-06T14:18:59;2.08;;;1.35;;
21254;SDS011;10785;50.674;17.954;2023-04-06T14:21:28;3.45;;;3.25;;
21254;SDS011;10785;50.674;17.954;2023-04-06T14:23:58;2.78;;;2.58;;
21254;SDS011;10785;50.674;17.954;2023-04-06T14:26:26;2.33;;;2.15;;
21254;SDS011;10785;50.674;17.954;2023-04-06T14:28:56;2.13;;;2.03;;
21254;SDS011;10785;50.674;17.954;2023-04-06T14:31:26;2.28;;;2.08;;
21254;SDS011;10785;50.674;17.954;2023-04-06T14:33:55;1.55;;;1.52;;
21254;SDS011;10785;50.674;17.954;2023-04-06T14:36:24;8.05;;;3.28;;
21254;SDS011;10785;50.674;17.954;2023-04-06T14:38:54;2.30;;;2.20;;
21254;SDS011;10785;50.674;17.954;2023-04-06T14:41:23;3.83;;;3.53;;
21254;SDS011;10785;50.674;17.954;2023-04-06T14:43:52;3.45;;;3.15;;
21254;SDS011;10785;50.674;17.954;2023-04-06T14:46:22;3.22;;;3.05;;
21254;SDS011;10785;50.674;17.954;2023-04-06T14:48:51;1.20;;;1.20;;
21254;SDS011;10785;50.674;17.954;2023-04-06T14:51:26;1.90;;;1.80;;
21254;SDS011;10785;50.674;17.954;2023-04-06T14:53:55;4.30;;;2.65;;
21254;SDS011;10785;50.674;17.954;2023-04-06T14:56:24;1.27;;;1.27;;
21254;SDS011;10785;50.674;17.954;2023-04-06T14:58:53;7.00;;;2.78;;
21254;SDS011;10785;50.674;17.954;2023-04-06T15:01:25;2.08;;;1.98;;
21254;SDS011;10785;50.674;17.954;2023-04-06T15:03:53;1.25;;;1.20;;
21254;SDS011;10785;50.674;17.954;2023-04-06T15:09:16;1.88;;;1.77;;
21254;SDS011;10785;50.674;17.954;2023-04-06T15:11:44;2.03;;;1.92;;
21254;SDS011;10785;50.674;17.954;2023-04-06T15:14:13;1.55;;;1.45;;
21254;SDS011;10785;50.674;17.954;2023-04-06T15:16:43;3.00;;;2.75;;
21254;SDS011;10785;50.674;17.954;2023-04-06T15:19:11;6.13;;;5.55;;
21254;SDS011;10785;50.674;17.954;2023-04-06T15:21:40;2.50;;;2.30;;
21254;SDS011;10785;50.674;17.954;2023-04-06T15:24:09;2.55;;;2.33;;
21254;SDS011;10785;50.674;17.954;2023-04-06T15:26:37;2.08;;;1.98;;
21254;SDS011;10785;50.674;17.954;2023-04-06T15:29:06;8.77;;;2.80;;
21254;SDS011;10785;50.674;17.954;2023-04-06T15:31:34;1.83;;;1.75;;
21254;SDS011;10785;50.674;17.954;2023-04-06T15:34:06;3.28;;;1.85;;
21254;SDS011;10785;50.674;17.954;2023-04-06T15:36:35;2.08;;;1.98;;
21254;SDS011;10785;50.674;17.954;2023-04-06T15:39:04;8.02;;;2.88;;
21254;SDS011;10785;50.674;17.954;2023-04-06T15:41:35;1.33;;;1.25;;
21254;SDS011;10785;50.674;17.954;2023-04-06T15:44:04;1.48;;;1.38;;
21254;SDS011;10785;50.674;17.954;2023-04-06T15:46:33;2.38;;;2.28;;
21254;SDS011;10785;50.674;17.954;2023-04-06T15:49:02;1.92;;;1.83;;